Boody, Illinois
Current Conditions -  °F | °C
As of 3:54 AM on Monday 22 Dec 2014 (Local Time) from KDEC Reporting Station
Overcast Overcast  
Wind Chill: 27°   Ceiling: 6000
Heat Index: 34°   Visibility: 7mi
Dew Point: 30°   Wind: 8mph
Humidity: 85%   Direction: 120°ESE
Pressure: 29.91"   Gusts: NA
Location:  39.77°N, 89.05°W
Report Text: KDEC 220954Z AUTO 12007KT 7SM FEW049 OVC060 01/M01 A2991 RMK AO2 SLP133 T00111011 TSNO
Loading
Personal Weather Stations






























Interactive Weather Map New forecast layout! Learn more

10-Day Weather Forecast

Advertisements
Track Severe Weather on mobile